This is the latest recevied weather packets stored in our database for station/object OK1TBF-6. If no packets are shown the sender has not sent any weather packets the latest 10 day(s).
| Time | Temp. | Humidity | Pressure | Rain* | Wind** | Luminosity | Snow |
|---|---|---|---|---|---|---|---|
| 1777983938 | 22.22° C | 42% | 999 hPa | 0 mm | - | - | - |
| 1777982138 | 21.67° C | 43% | 999.3 hPa | 0 mm | - | - | - |
| 1777981537 | 21.67° C | 45% | 999.4 hPa | 0 mm | - | - | - |
| 1777979436 | 21.67° C | 43% | 999.5 hPa | 0 mm | - | - | - |
| 1777977036 | 20° C | 46% | 999.7 hPa | 0 mm | - | - | - |
| 1777976736 | 20.56° C | 46% | 999.5 hPa | 0 mm | - | - | - |
| 1777975236 | 20° C | 45% | 999.8 hPa | 0 mm | - | - | - |
| 1777974936 | 20° C | 47% | 1000 hPa | 0 mm | - | - | - |
| 1777971336 | 18.33° C | 47% | 1000.6 hPa | 0 mm | - | - | - |
| 1777965634 | 15.56° C | 49% | 1001 hPa | 0 mm | - | - | - |
| 1777965035 | 15.56° C | 48% | 1000.9 hPa | 0 mm | - | - | - |
| 1777964435 | 16.11° C | 47% | 1000.9 hPa | 0 mm | - | - | - |
| 1777963533 | 15.56° C | 48% | 1000.8 hPa | 0 mm | - | - | - |
| 1777959933 | 14.44° C | 50% | 1000.6 hPa | 0 mm | - | - | - |
| 1777958134 | 14.44° C | 48% | 1000.6 hPa | 0 mm | - | - | - |
| 1777956933 | 14.44° C | 48% | 1000.8 hPa | 0 mm | - | - | - |
| 1777955734 | 13.89° C | 48% | 1000.8 hPa | 0 mm | - | - | - |
| 1777954234 | 13.33° C | 49% | 1001.2 hPa | 0 mm | - | - | - |
| 1777949435 | 14.44° C | 48% | 1002 hPa | 0 mm | - | - | - |
| 1777948235 | 14.44° C | 49% | 1002 hPa | 0 mm | - | - | - |
| 1777946736 | 15° C | 48% | 1002.4 hPa | 0 mm | - | - | - |
| 1777942537 | 15° C | 50% | 1002.3 hPa | 0 mm | - | - | - |
| 1777941636 | 15.56° C | 50% | 1002.6 hPa | 0 mm | - | - | - |
| 1777940736 | 15.56° C | 49% | 1002.8 hPa | 0 mm | - | - | - |
| 1777940137 | 16.11° C | 48% | 1002.8 hPa | 0 mm | - | - | - |
* Rain latest hour (hover to see other rain measurements)
** Current wind speed in m/s (hover to see current wind gust speed)